Baiting Hollow, New York
Current Conditions -  °F | °C
As of 8:53 AM on Monday 24 Nov 2014 (Local Time) from KFOK Reporting Station
Light Rain Light Rain  
Wind Chill: 61°   Ceiling: 400
Heat Index: 61°   Visibility: 2.5mi
Dew Point: 60°   Wind: 15mph
Humidity: 97%   Direction: 190°S
Pressure: 29.75"   Gusts: 25mph
Location:  40.9282°N, 72.7588°W
Report Text: KFOK 241353Z 19013G22KT 160V230 2 1/2SM -RA BR OVC004 16/16 A2975 RMK AO2 PK WND 16031/1321 CIG 003V008 SLP075 P0005 T01610156
Loading
Personal Weather Stations






























Interactive Weather Map New forecast layout! Learn more

10-Day Weather Forecast

Advertisements
Track Severe Weather on mobile